This is the latest recevied weather packets stored in our database for station/object KD7AWQ. If no packets are shown the sender has not sent any weather packets the latest 10 day(s).
| Time | Temp. | Humidity | Pressure | Rain* | Wind** | Luminosity | Snow |
|---|---|---|---|---|---|---|---|
| 1777871388 | 21.11° C | 19% | 1183.3 hPa | 0 mm | - | 0 W/m² | - |
| 1777871085 | 21.11° C | 19% | 1183.2 hPa | 0 mm | - | 0 W/m² | - |
| 1777870782 | 21.67° C | 19% | 1183.1 hPa | 0 mm | - | 0 W/m² | - |
| 1777870478 | 21.67° C | 19% | 1183.1 hPa | 0 mm | - | 0 W/m² | - |
| 1777870174 | 21.67° C | 18% | 1183.2 hPa | 0 mm | - | 0 W/m² | - |
| 1777869872 | 21.67° C | 18% | 1182.9 hPa | 0 mm | - | 0 W/m² | - |
| 1777869569 | 21.11° C | 17% | 1183 hPa | 0 mm | - | 0 W/m² | - |
| 1777869266 | 21.11° C | 17% | 1182.8 hPa | 0 mm | - | 0 W/m² | - |
| 1777868963 | 21.11° C | 17% | 1182.7 hPa | 0 mm | - | 0 W/m² | - |
| 1777868659 | 21.11° C | 18% | 1182.7 hPa | 0 mm | - | 0 W/m² | - |
| 1777868356 | 21.11° C | 18% | 1182.6 hPa | 0 mm | - | 0 W/m² | - |
| 1777868052 | 21.11° C | 18% | 1182.7 hPa | 0 mm | - | 0 W/m² | - |
| 1777867748 | 21.11° C | 18% | 1182.3 hPa | 0 mm | - | 0 W/m² | - |
| 1777867446 | 21.67° C | 18% | 1182 hPa | 0 mm | - | 0 W/m² | - |
| 1777867142 | 21.67° C | 17% | 1182.2 hPa | 0 mm | - | 0 W/m² | - |
| 1777866840 | 22.22° C | 17% | 1182.2 hPa | 0 mm | - | 0 W/m² | - |
| 1777866536 | 22.22° C | 17% | 1182.1 hPa | 0 mm | - | 0 W/m² | - |
| 1777866234 | 22.22° C | 17% | 1181.9 hPa | 0 mm | - | 0 W/m² | - |
| 1777864719 | 23.33° C | 16% | 1181.5 hPa | 0 mm | - | 0 W/m² | - |
| 1777848047 | 25.56° C | 24% | 1182 hPa | 0 mm | - | 225 W/m² | - |
| 1777847138 | 26.11° C | 23% | 1181.9 hPa | 0 mm | - | 569 W/m² | - |
| 1777846836 | 26.67° C | 23% | 1182.2 hPa | 0 mm | - | 835 W/m² | - |
| 1777845927 | 26.11° C | 25% | 1182.3 hPa | 0 mm | - | 749 W/m² | - |
| 1777845321 | 25.56° C | 26% | 1182.4 hPa | 0 mm | - | 389 W/m² | - |
| 1777845018 | 25.56° C | 26% | 1182.8 hPa | 0 mm | - | 721 W/m² | - |
* Rain latest hour (hover to see other rain measurements)
** Current wind speed in m/s (hover to see current wind gust speed)